Time;durP1;ratioP1;P1;durP2;ratioP2;P2;SDS_P1;SDS_P2;PMS_P1;PMS_P2;Temp;Humidity;BMP_temperature;BMP_pressure;BME280_temperature;BME280_humidity;BME280_pressure;Samples;Min_cycle;Max_cycle;Signal;HPM_P1;HPM_P2
2020/12/30 00:02:02;;;;;;;6.50;3.45;;;;;;;2.21;84.49;96654.53;4940395;28;45282;-74
2020/12/30 00:04:28;;;;;;;6.47;3.05;;;;;;;2.27;83.06;96666.25;4940350;28;46107;-73
2020/12/30 00:06:53;;;;;;;4.97;3.15;;;;;;;2.26;82.72;96668.06;4940344;28;45275;-73
2020/12/30 00:09:19;;;;;;;5.82;3.05;;;;;;;1.70;84.48;96667.00;4940694;28;45225;-73
2020/12/30 00:11:44;;;;;;;4.90;3.03;;;;;;;1.90;84.26;96665.22;4940272;28;45524;-73
2020/12/30 00:14:09;;;;;;;5.85;3.60;;;;;;;2.02;82.91;96653.59;4940481;28;46181;-73
2020/12/30 00:16:35;;;;;;;5.43;3.10;;;;;;;2.00;83.16;96663.41;4938484;28;45372;-73
2020/12/30 00:19:00;;;;;;;8.70;3.58;;;;;;;2.03;82.58;96652.63;4938877;28;45345;-74
2020/12/30 00:21:26;;;;;;;7.07;4.10;;;;;;;2.07;82.64;96654.97;4940075;28;45317;-73
2020/12/30 00:23:51;;;;;;;7.22;4.30;;;;;;;2.03;82.99;96657.88;4940204;28;45493;-73
2020/12/30 00:26:18;;;;;;;6.85;4.15;;;;;;;1.97;83.25;96665.50;4939997;28;45428;-73
2020/12/30 00:28:44;;;;;;;8.18;4.55;;;;;;;2.06;82.94;96671.66;4939012;28;45356;-73
2020/12/30 00:31:09;;;;;;;7.60;4.05;;;;;;;2.04;82.97;96674.44;4939527;28;45571;-73
2020/12/30 00:33:35;;;;;;;6.25;3.90;;;;;;;2.06;83.07;96667.25;4939950;28;46195;-73
2020/12/30 00:36:00;;;;;;;6.22;3.17;;;;;;;1.95;83.66;96662.19;4939838;28;45412;-73
2020/12/30 00:38:25;;;;;;;5.45;3.05;;;;;;;1.70;84.24;96672.25;4940265;28;45215;-73
2020/12/30 00:40:51;;;;;;;5.65;2.67;;;;;;;1.60;85.88;96672.28;4939952;28;45396;-73
2020/12/30 00:43:16;;;;;;;5.30;2.70;;;;;;;1.62;85.50;96678.22;4939746;28;46098;-73
2020/12/30 00:45:42;;;;;;;23.80;11.10;;;;;;;1.07;86.03;96687.38;4939577;28;45374;-73
2020/12/30 00:48:07;;;;;;;27.38;13.43;;;;;;;0.90;88.32;96688.03;4939926;28;45421;-73
2020/12/30 00:50:32;;;;;;;28.42;12.85;;;;;;;1.25;85.97;96676.25;4939895;28;45203;-73
2020/12/30 00:52:58;;;;;;;16.63;8.95;;;;;;;1.46;85.22;96684.00;4939680;28;46045;-73
2020/12/30 00:55:23;;;;;;;12.98;6.82;;;;;;;1.56;84.58;96678.75;4939393;28;45276;-73
2020/12/30 00:57:49;;;;;;;10.52;4.15;;;;;;;1.62;84.69;96682.59;4939812;28;45438;-73
2020/12/30 01:00:14;;;;;;;7.15;4.03;;;;;;;1.69;84.31;96683.72;4939362;28;45438;-73
2020/12/30 01:02:40;;;;;;;6.55;3.38;;;;;;;1.73;84.93;96685.94;4939454;28;45294;-73
2020/12/30 01:05:05;;;;;;;6.35;3.60;;;;;;;1.80;84.94;96693.22;4954235;28;45359;-73
2020/12/30 01:07:30;;;;;;;7.38;3.20;;;;;;;1.52;86.33;96700.97;4939877;28;45453;-73
2020/12/30 01:09:56;;;;;;;6.32;3.35;;;;;;;1.68;85.88;96701.25;4939544;28;45406;-74
2020/12/30 01:12:21;;;;;;;5.72;3.63;;;;;;;1.87;84.79;96703.03;4939501;28;45363;-73
2020/12/30 01:14:47;;;;;;;7.88;3.90;;;;;;;1.98;84.46;96704.66;4939210;28;45326;-73
2020/12/30 01:17:13;;;;;;;7.22;3.53;;;;;;;2.07;84.68;96703.00;4939554;28;45477;-73
2020/12/30 01:19:38;;;;;;;5.70;3.50;;;;;;;2.11;84.38;96704.38;4939241;28;45335;-73
2020/12/30 01:22:03;;;;;;;6.75;3.95;;;;;;;2.15;84.46;96711.00;4939190;28;45413;-73
2020/12/30 01:24:29;;;;;;;6.82;4.10;;;;;;;2.18;84.80;96717.75;4939205;28;45415;-74
2020/12/30 01:26:54;;;;;;;6.53;3.70;;;;;;;2.00;86.32;96723.72;4938310;28;45275;-73
2020/12/30 01:29:20;;;;;;;6.90;3.75;;;;;;;2.08;86.50;96733.50;4939151;28;45524;-73
2020/12/30 01:31:45;;;;;;;8.48;4.05;;;;;;;2.19;85.75;96727.28;4939226;28;45236;-74
2020/12/30 01:34:11;;;;;;;6.55;4.28;;;;;;;2.26;85.41;96735.41;4939234;28;45299;-74
2020/12/30 01:36:37;;;;;;;7.75;5.07;;;;;;;2.31;85.15;96738.44;4939350;28;45459;-74
2020/12/30 01:39:04;;;;;;;9.00;5.50;;;;;;;2.33;85.54;96739.13;4939297;28;45376;-74
2020/12/30 01:41:29;;;;;;;8.25;5.07;;;;;;;2.32;85.96;96734.84;4939136;28;46024;-74
2020/12/30 01:44:04;;;;;;;8.30;5.18;;;;;;;2.07;86.36;96744.13;4938985;28;45350;-74
2020/12/30 01:46:34;;;;;;;7.82;4.72;;;;;;;1.77;88.48;96751.19;4938728;28;45493;-73
2020/12/30 01:49:01;;;;;;;8.90;5.15;;;;;;;1.87;88.75;96750.22;4939122;28;45221;-73
2020/12/30 01:51:28;;;;;;;10.00;5.78;;;;;;;2.12;87.50;96763.75;4937852;28;48263;-73
2020/12/30 01:53:53;;;;;;;9.85;5.18;;;;;;;2.23;86.95;96765.41;4938718;28;45399;-73
2020/12/30 01:56:22;;;;;;;8.48;4.82;;;;;;;2.15;86.87;96767.88;4939030;28;45221;-74
2020/12/30 01:58:48;;;;;;;8.32;4.88;;;;;;;2.06;87.96;96771.31;4937496;28;45637;-73
2020/12/30 02:01:14;;;;;;;13.82;6.35;;;;;;;1.63;89.35;96773.38;4938389;28;46055;-74
2020/12/30 02:03:42;;;;;;;10.13;6.00;;;;;;;1.89;88.48;96758.78;4938521;28;45298;-74
2020/12/30 02:06:08;;;;;;;10.75;5.60;;;;;;;2.14;87.33;96761.81;4939052;28;45268;-73
2020/12/30 02:08:33;;;;;;;10.15;6.85;;;;;;;2.30;86.70;96757.78;4940857;28;45163;-74
2020/12/30 02:11:00;;;;;;;10.35;6.38;;;;;;;2.31;86.61;96756.81;4942235;28;45380;-74
2020/12/30 02:13:26;;;;;;;12.70;7.57;;;;;;;2.38;86.34;96747.41;4942051;28;45348;-74
2020/12/30 02:15:51;;;;;;;12.18;7.82;;;;;;;2.40;86.19;96748.09;4941980;28;45278;-74
2020/12/30 02:18:16;;;;;;;12.32;7.50;;;;;;;1.94;88.31;96750.50;4941849;28;45789;-73
2020/12/30 02:20:42;;;;;;;11.77;8.07;;;;;;;2.28;87.51;96762.34;4941748;28;45478;-74
2020/12/30 02:23:09;;;;;;;12.85;8.40;;;;;;;2.37;87.09;96764.13;4941712;28;45322;-74
2020/12/30 02:25:34;;;;;;;10.90;7.10;;;;;;;2.27;86.77;96758.91;4942289;28;45242;-74
2020/12/30 02:28:00;;;;;;;16.13;9.65;;;;;;;1.81;86.69;96760.44;4940595;28;45852;-73
2020/12/30 02:30:25;;;;;;;17.80;9.48;;;;;;;2.03;85.87;96768.00;4941646;28;45396;-74
2020/12/30 02:32:51;;;;;;;16.40;9.80;;;;;;;2.08;85.78;96758.91;4941702;28;45430;-74
2020/12/30 02:35:24;;;;;;;15.40;8.02;;;;;;;2.08;85.48;96772.84;4941950;28;45231;-73
2020/12/30 02:37:50;;;;;;;16.90;8.63;;;;;;;2.05;85.13;96765.25;4941786;28;45233;-74
2020/12/30 02:40:16;;;;;;;17.42;9.32;;;;;;;2.08;85.09;96772.00;4941702;28;46250;-73
2020/12/30 02:42:42;;;;;;;19.70;9.98;;;;;;;2.12;84.72;96765.53;4956469;28;45300;-74
2020/12/30 02:45:08;;;;;;;37.53;19.08;;;;;;;2.14;84.24;96772.31;4941501;28;45222;-74
2020/12/30 02:47:34;;;;;;;11.73;7.18;;;;;;;2.15;85.19;96775.72;4940196;28;45382;-73
2020/12/30 02:50:01;;;;;;;11.85;6.80;;;;;;;2.21;84.90;96772.59;4940283;28;47544;-74
2020/12/30 02:52:27;;;;;;;13.13;8.20;;;;;;;2.24;84.78;96768.84;4941401;28;45338;-74
2020/12/30 02:54:53;;;;;;;11.48;6.80;;;;;;;2.28;84.51;96772.84;4941637;28;45275;-73
2020/12/30 02:57:18;;;;;;;12.98;7.47;;;;;;;2.33;84.17;96775.88;4956228;28;45541;-73
2020/12/30 02:59:44;;;;;;;15.88;8.70;;;;;;;2.32;84.03;96767.19;4941234;28;46335;-73
2020/12/30 03:02:09;;;;;;;18.27;10.90;;;;;;;2.29;84.61;96769.25;4955947;28;45236;-74
2020/12/30 03:04:35;;;;;;;14.20;8.30;;;;;;;2.24;84.89;96767.06;4941459;28;45324;-73
2020/12/30 03:07:01;;;;;;;13.45;9.13;;;;;;;2.20;85.00;96773.53;4941331;28;45230;-74
2020/12/30 03:09:26;;;;;;;10.50;5.85;;;;;;;1.58;88.03;96771.97;4941260;28;45354;-73
2020/12/30 03:11:52;;;;;;;11.07;7.05;;;;;;;1.86;86.86;96764.31;4941152;28;45240;-73
2020/12/30 03:14:19;;;;;;;14.43;7.65;;;;;;;2.01;85.93;96769.94;4941207;28;45372;-74
2020/12/30 03:16:44;;;;;;;14.18;7.70;;;;;;;1.84;87.05;96775.88;4939784;28;45358;-73
2020/12/30 03:19:10;;;;;;;16.17;9.45;;;;;;;1.67;86.55;96780.00;4940897;28;46276;-74
2020/12/30 03:21:35;;;;;;;16.58;9.85;;;;;;;1.64;86.15;96786.34;4940908;28;45350;-74
2020/12/30 03:24:01;;;;;;;16.38;9.32;;;;;;;1.47;87.32;96787.81;4941189;28;45402;-74
2020/12/30 03:26:27;;;;;;;13.88;8.85;;;;;;;1.62;86.34;96790.91;4940911;28;45522;-74
2020/12/30 03:28:53;;;;;;;15.00;9.20;;;;;;;1.66;85.33;96789.66;4941121;28;46028;-73
2020/12/30 03:31:18;;;;;;;11.48;6.25;;;;;;;1.75;85.57;96785.38;4939153;28;45516;-74
2020/12/30 03:33:43;;;;;;;11.30;5.97;;;;;;;1.87;85.39;96796.56;4941131;28;45404;-73
2020/12/30 03:36:09;;;;;;;7.40;4.13;;;;;;;1.64;87.01;96783.72;4940804;28;45497;-73
2020/12/30 03:38:34;;;;;;;12.02;6.38;;;;;;;1.30;89.66;96790.13;4940886;28;45231;-73
2020/12/30 03:41:00;;;;;;;12.95;8.38;;;;;;;0.87;90.15;96783.34;4940721;28;45366;-73
2020/12/30 03:43:25;;;;;;;6.13;3.05;;;;;;;1.48;88.70;96788.66;4940962;28;45220;-73
2020/12/30 03:45:50;;;;;;;6.53;3.30;;;;;;;1.71;87.15;96784.00;4940498;28;45292;-73
2020/12/30 03:48:16;;;;;;;4.28;3.08;;;;;;;1.62;87.78;96780.41;4939349;28;46863;-73
2020/12/30 03:50:41;;;;;;;17.38;8.35;;;;;;;1.69;87.12;96784.16;4940648;28;45402;-73
2020/12/30 03:53:07;;;;;;;23.58;13.55;;;;;;;1.81;86.01;96779.63;4940807;28;45465;-74
2020/12/30 03:55:32;;;;;;;20.75;10.95;;;;;;;1.82;85.49;96783.91;4940555;28;45236;-74
2020/12/30 03:57:57;;;;;;;13.05;7.50;;;;;;;1.87;85.49;96778.22;4940511;28;45256;-74
2020/12/30 04:00:23;;;;;;;13.38;8.38;;;;;;;1.92;85.48;96776.03;4940180;28;45247;-74
2020/12/30 04:02:48;;;;;;;11.48;6.47;;;;;;;1.92;85.20;96781.25;4940668;28;45350;-73
2020/12/30 04:05:13;;;;;;;9.60;5.47;;;;;;;1.74;86.32;96787.19;4940381;28;45326;-74
2020/12/30 04:07:39;;;;;;;8.60;4.88;;;;;;;1.83;86.10;96792.56;4940549;28;45273;-73
2020/12/30 04:10:05;;;;;;;8.05;5.22;;;;;;;1.92;85.44;96785.69;4938999;28;45477;-73
2020/12/30 04:12:30;;;;;;;7.75;4.70;;;;;;;1.88;85.35;96788.59;4940630;28;45519;-73
2020/12/30 04:14:55;;;;;;;6.68;3.78;;;;;;;1.88;85.27;96777.25;4940036;28;45411;-73
2020/12/30 04:17:21;;;;;;;6.05;3.60;;;;;;;1.94;84.85;96771.47;4940198;28;45325;-73
2020/12/30 04:19:46;;;;;;;7.07;3.97;;;;;;;1.94;84.95;96781.13;4940077;28;45461;-73
2020/12/30 04:22:12;;;;;;;6.03;3.92;;;;;;;1.92;84.94;96773.41;4940297;28;45445;-73
2020/12/30 04:24:37;;;;;;;6.25;4.07;;;;;;;1.62;86.45;96785.66;4938773;28;45577;-74
2020/12/30 04:27:02;;;;;;;7.43;4.55;;;;;;;1.59;87.29;96783.31;4940174;28;45315;-73
2020/12/30 04:29:28;;;;;;;8.93;5.25;;;;;;;1.56;87.82;96786.19;4939684;28;45398;-74
2020/12/30 04:31:53;;;;;;;10.52;6.68;;;;;;;1.64;87.05;96788.97;4939795;28;45250;-73
2020/12/30 04:34:19;;;;;;;14.70;9.00;;;;;;;1.62;86.03;96785.66;4939995;28;45455;-74
2020/12/30 04:36:44;;;;;;;16.27;9.55;;;;;;;1.63;86.07;96795.19;4938727;28;47108;-73
2020/12/30 04:39:10;;;;;;;18.33;10.55;;;;;;;1.67;85.54;96799.19;4938605;28;46243;-73
2020/12/30 04:41:37;;;;;;;15.55;10.30;;;;;;;1.71;85.24;96797.94;4940310;28;45232;-73
2020/12/30 04:44:05;;;;;;;10.38;5.82;;;;;;;1.73;85.58;96798.63;4939538;28;45604;-73
2020/12/30 04:46:30;;;;;;;4.65;3.08;;;;;;;1.75;85.21;96788.84;4939724;28;45964;-73
2020/12/30 04:48:57;;;;;;;4.63;2.42;;;;;;;1.78;85.90;96794.78;4939733;28;45335;-73
2020/12/30 04:51:24;;;;;;;5.13;3.00;;;;;;;1.83;85.52;96789.97;4940153;28;45327;-73
2020/12/30 04:53:52;;;;;;;7.75;3.85;;;;;;;1.87;85.24;96791.34;4939666;28;45548;-73
2020/12/30 04:56:40;;;;;;;8.65;3.95;;;;;;;1.78;85.50;96800.03;4939663;28;45347;-74
2020/12/30 04:59:10;;;;;;;5.95;3.22;;;;;;;1.88;85.30;96798.25;4939302;28;45335;-73
2020/12/30 05:01:48;;;;;;;6.10;3.85;;;;;;;1.91;85.00;96803.22;4939682;28;45295;-73
2020/12/30 05:04:16;;;;;;;7.30;4.20;;;;;;;1.86;85.78;96808.03;4927509;28;45228;-73
2020/12/30 05:06:45;;;;;;;6.20;4.03;;;;;;;1.49;87.20;96804.25;4939539;28;45482;-73
2020/12/30 05:09:12;;;;;;;7.83;4.40;;;;;;;1.65;86.76;96808.13;4939667;28;45319;-73
2020/12/30 05:11:39;;;;;;;6.72;3.83;;;;;;;1.70;86.43;96808.56;4939636;28;45227;-73
2020/12/30 05:14:04;;;;;;;6.43;3.88;;;;;;;1.79;85.11;96804.31;4939383;28;45607;-74
2020/12/30 05:16:29;;;;;;;5.50;2.90;;;;;;;1.77;84.76;96804.44;4939226;28;46074;-73
2020/12/30 05:19:04;;;;;;;5.65;3.40;;;;;;;1.74;85.18;96802.06;4939334;28;45342;-73
2020/12/30 05:21:31;;;;;;;7.15;3.50;;;;;;;1.72;85.16;96799.59;4939404;28;45552;-73
2020/12/30 05:23:57;;;;;;;6.65;3.58;;;;;;;1.70;85.08;96796.28;4954308;28;45509;-73
2020/12/30 05:26:24;;;;;;;7.18;3.75;;;;;;;1.68;84.43;96803.47;4939213;28;45361;-73
2020/12/30 05:28:50;;;;;;;6.15;3.65;;;;;;;1.62;84.27;96796.16;4954243;28;45385;-73
2020/12/30 05:31:16;;;;;;;6.00;3.40;;;;;;;0.92;87.14;96812.59;4938931;28;45287;-73
2020/12/30 05:33:42;;;;;;;6.55;3.50;;;;;;;1.25;86.19;96807.19;4939265;28;45237;-73
2020/12/30 05:36:07;;;;;;;7.40;3.70;;;;;;;1.35;85.91;96807.25;4939091;28;45429;-73
2020/12/30 05:38:33;;;;;;;5.40;3.40;;;;;;;1.36;85.48;96807.13;4937965;28;45306;-73
2020/12/30 05:40:58;;;;;;;5.22;3.33;;;;;;;1.38;85.26;96807.81;4939276;28;45414;-73
2020/12/30 05:43:24;;;;;;;6.32;3.03;;;;;;;1.40;85.11;96812.91;4941109;28;45222;-73
2020/12/30 05:45:51;;;;;;;6.07;2.80;;;;;;;1.39;85.00;96808.63;4942186;28;45830;-73
2020/12/30 05:48:18;;;;;;;5.32;2.35;;;;;;;1.40;84.91;96810.28;4941217;28;45383;-73
2020/12/30 05:50:52;;;;;;;5.43;2.10;;;;;;;1.39;84.61;96804.22;4942635;28;45456;-73
2020/12/30 05:53:18;;;;;;;5.60;2.70;;;;;;;1.38;85.14;96801.72;4942542;28;45358;-73
2020/12/30 05:55:47;;;;;;;4.65;3.00;;;;;;;1.33;84.67;96810.00;4950331;28;47081;-73
2020/12/30 05:58:14;;;;;;;5.68;2.67;;;;;;;1.24;84.90;96811.63;4942418;28;45230;-73
2020/12/30 06:00:40;;;;;;;5.32;3.08;;;;;;;1.17;85.13;96808.69;4940847;28;45370;-73
2020/12/30 06:03:06;;;;;;;6.68;3.60;;;;;;;1.29;84.82;96814.66;4940728;28;45266;-74
2020/12/30 06:05:32;;;;;;;7.68;3.78;;;;;;;1.12;84.29;96823.16;4955058;28;46778;-73
2020/12/30 06:07:57;;;;;;;5.40;3.03;;;;;;;1.22;84.87;96825.78;4940601;28;45482;-73
2020/12/30 06:10:25;;;;;;;4.65;2.13;;;;;;;1.21;84.55;96835.47;4941531;28;45473;-72
2020/12/30 06:12:53;;;;;;;6.07;2.55;;;;;;;1.23;83.59;96836.16;4940180;28;45655;-73
2020/12/30 06:15:24;;;;;;;4.85;1.80;;;;;;;1.26;83.27;96837.66;4940904;28;45433;-72
2020/12/30 06:18:04;;;;;;;2.97;1.48;;;;;;;1.24;83.62;96852.69;4941556;28;45374;-72
2020/12/30 06:20:37;;;;;;;3.95;1.83;;;;;;;1.24;83.19;96842.22;4940854;28;45308;-72
2020/12/30 06:23:04;;;;;;;2.72;1.90;;;;;;;1.20;83.23;96843.44;4955921;28;45644;-72
2020/12/30 06:25:32;;;;;;;4.45;2.10;;;;;;;1.15;83.54;96847.28;4941271;28;45465;-72
2020/12/30 06:28:07;;;;;;;4.70;2.08;;;;;;;1.13;83.89;96854.44;4941158;28;45346;-73
2020/12/30 06:30:33;;;;;;;4.65;2.05;;;;;;;1.12;83.68;96862.44;4941080;28;45607;-73
2020/12/30 06:33:00;;;;;;;3.95;2.10;;;;;;;1.19;83.33;96860.94;4941013;28;45540;-73
2020/12/30 06:35:30;;;;;;;4.90;2.40;;;;;;;1.16;83.97;96869.06;4941062;28;45497;-73
2020/12/30 06:37:56;;;;;;;6.38;2.58;;;;;;;1.14;84.17;96869.19;4941064;28;45477;-72
2020/12/30 06:40:24;;;;;;;5.80;3.05;;;;;;;1.12;83.98;96876.34;4955903;28;45437;-73
2020/12/30 06:42:55;;;;;;;6.25;3.30;;;;;;;1.09;83.65;96876.59;4939876;28;45466;-73
2020/12/30 06:45:42;;;;;;;5.82;2.97;;;;;;;0.58;86.43;96889.53;4940510;28;45573;-73
2020/12/30 06:48:08;;;;;;;6.05;3.33;;;;;;;0.88;85.54;96894.94;4933685;28;45410;-73
2020/12/30 06:50:33;;;;;;;6.22;3.30;;;;;;;0.97;85.67;96893.34;4941015;28;45423;-73
2020/12/30 06:53:31;;;;;;;6.57;3.50;;;;;;;0.99;84.92;96900.13;4955485;28;45512;-73
2020/12/30 06:56:01;;;;;;;5.70;2.63;;;;;;;1.04;85.40;96912.00;4940730;28;46391;-73
2020/12/30 06:58:46;;;;;;;4.38;2.33;;;;;;;0.67;84.95;96906.25;4940830;28;45494;-73
2020/12/30 07:01:20;;;;;;;4.65;2.50;;;;;;;0.99;84.62;96913.22;4934463;28;45446;-73
2020/12/30 07:03:49;;;;;;;5.72;2.70;;;;;;;1.08;83.59;96916.03;4940743;28;45431;-72
2020/12/30 07:06:26;;;;;;;5.30;2.70;;;;;;;1.07;84.04;96909.13;4940684;28;45371;-72
2020/12/30 07:08:53;;;;;;;5.38;3.00;;;;;;;1.09;83.97;96918.50;4940689;28;45396;-73
2020/12/30 07:11:37;;;;;;;5.60;2.20;;;;;;;1.06;84.04;96931.84;4940822;28;45307;-72
2020/12/30 07:14:09;;;;;;;5.60;2.33;;;;;;;0.89;85.28;96937.66;4943776;28;45623;-73
2020/12/30 07:16:36;;;;;;;5.35;2.20;;;;;;;0.91;84.45;96935.75;4938975;28;47651;-72
2020/12/30 07:19:08;;;;;;;5.10;2.80;;;;;;;0.92;84.80;96947.88;4940502;28;45703;-72
2020/12/30 07:21:47;;;;;;;6.47;2.88;;;;;;;0.67;85.67;96957.78;4940455;28;45484;-73
2020/12/30 07:24:18;;;;;;;5.43;3.00;;;;;;;0.11;88.43;96967.44;4940330;28;45486;-72
2020/12/30 07:26:46;;;;;;;5.75;3.50;;;;;;;-0.02;88.76;96964.94;4940182;28;46067;-73
2020/12/30 07:29:13;;;;;;;8.27;4.07;;;;;;;0.43;87.74;96977.09;4940223;28;45281;-73
2020/12/30 07:31:39;;;;;;;8.13;4.45;;;;;;;0.69;86.27;96979.41;4939492;28;45458;-73
2020/12/30 07:34:14;;;;;;;8.07;4.18;;;;;;;0.83;85.40;96973.88;4940499;28;45459;-73
2020/12/30 07:36:39;;;;;;;7.57;4.00;;;;;;;0.87;84.44;96983.13;4928992;28;45244;-73
2020/12/30 07:39:06;;;;;;;6.80;4.00;;;;;;;0.91;84.46;96978.50;4940019;28;45479;-73
2020/12/30 07:41:36;;;;;;;7.53;3.90;;;;;;;0.93;84.56;96983.59;4955356;28;45418;-72
2020/12/30 07:44:03;;;;;;;8.13;3.73;;;;;;;0.93;85.13;96987.03;4939716;28;45347;-73
2020/12/30 07:46:29;;;;;;;5.97;3.28;;;;;;;0.56;87.08;96992.66;4939963;28;45469;-72
2020/12/30 07:49:06;;;;;;;7.07;3.22;;;;;;;0.79;86.53;96988.16;4954902;28;45285;-73
2020/12/30 07:51:32;;;;;;;6.80;3.90;;;;;;;0.95;85.07;96992.13;4940316;28;45453;-73
2020/12/30 07:53:57;;;;;;;6.20;4.00;;;;;;;1.08;84.02;96995.41;4939848;28;45342;-72
2020/12/30 07:56:24;;;;;;;12.32;6.28;;;;;;;1.10;84.19;97005.75;4954791;28;47305;-72
2020/12/30 07:58:49;;;;;;;9.93;4.85;;;;;;;1.17;83.73;96999.88;4939589;28;45487;-75
2020/12/30 08:01:18;;;;;;;12.95;5.75;;;;;;;1.19;84.05;96999.75;4940070;28;45294;-73
2020/12/30 08:03:44;;;;;;;9.68;4.85;;;;;;;1.23;83.88;97010.78;4939594;28;45299;-73
2020/12/30 08:06:10;;;;;;;9.90;4.75;;;;;;;1.23;84.13;97011.66;4953649;28;46825;-73
2020/12/30 08:08:47;;;;;;;12.38;7.47;;;;;;;1.15;84.53;97011.44;4939538;28;45355;-73
2020/12/30 08:11:19;;;;;;;7.68;4.22;;;;;;;1.23;84.29;97018.66;4954822;28;45475;-73
2020/12/30 08:13:45;;;;;;;7.20;4.15;;;;;;;1.31;83.96;97013.59;4938818;28;45489;-73
2020/12/30 08:16:11;;;;;;;6.75;4.25;;;;;;;1.36;84.42;97021.09;4939092;28;46101;-73
2020/12/30 08:18:48;;;;;;;7.43;4.05;;;;;;;1.41;83.97;97021.53;4939530;28;45429;-72
2020/12/30 08:21:14;;;;;;;8.73;3.83;;;;;;;1.47;84.76;97020.22;4954544;28;45502;-73
2020/12/30 08:23:40;;;;;;;6.57;3.80;;;;;;;1.61;84.96;97019.88;4939466;28;45456;-73
2020/12/30 08:26:09;;;;;;;7.97;4.15;;;;;;;1.45;85.34;97022.94;4939419;28;45358;-73
2020/12/30 08:28:34;;;;;;;7.85;3.60;;;;;;;1.64;85.95;97035.34;4928710;28;45444;-73
2020/12/30 08:31:02;;;;;;;13.68;8.13;;;;;;;1.71;85.87;97035.63;4939019;28;45906;-73
2020/12/30 08:33:28;;;;;;;20.13;12.38;;;;;;;1.42;87.22;97037.16;4939464;28;45332;-73
2020/12/30 08:36:08;;;;;;;18.80;12.57;;;;;;;1.73;85.73;97052.06;4939111;28;45476;-73
2020/12/30 08:38:34;;;;;;;17.80;12.53;;;;;;;1.88;84.83;97047.31;4938208;28;45396;-73
2020/12/30 08:41:08;;;;;;;17.30;11.32;;;;;;;2.00;84.36;97048.06;4939242;28;45462;-73
2020/12/30 08:43:43;;;;;;;17.52;11.77;;;;;;;2.11;84.68;97049.75;4939430;28;45390;-73
2020/12/30 08:46:18;;;;;;;12.13;8.07;;;;;;;2.12;83.79;97060.13;4938621;28;45264;-73
2020/12/30 08:48:51;;;;;;;20.45;12.82;;;;;;;1.99;85.30;97062.16;4939131;28;45442;-74
2020/12/30 08:51:36;;;;;;;24.85;13.38;;;;;;;1.53;88.07;97064.25;4929613;28;45299;-73
2020/12/30 08:54:13;;;;;;;33.67;16.98;;;;;;;1.21;88.57;97068.56;4939109;28;45418;-73
2020/12/30 08:56:40;;;;;;;15.70;10.13;;;;;;;1.16;88.24;97068.13;4931978;28;47283;-73
2020/12/30 08:59:05;;;;;;;14.95;9.93;;;;;;;1.36;88.81;97070.88;4953595;28;45524;-73
2020/12/30 09:01:30;;;;;;;16.92;10.00;;;;;;;1.79;88.55;97067.31;4939088;28;45436;-74
2020/12/30 09:04:10;;;;;;;14.98;8.63;;;;;;;2.03;86.65;97072.22;4953727;28;45347;-73
2020/12/30 09:06:36;;;;;;;22.03;13.20;;;;;;;2.13;85.82;97074.06;4953817;28;47316;-74
2020/12/30 09:09:12;;;;;;;18.98;9.80;;;;;;;2.25;84.25;97080.06;4938954;28;45252;-73
2020/12/30 09:11:44;;;;;;;28.83;16.48;;;;;;;2.30;84.24;97081.34;4938571;28;45644;-74
2020/12/30 09:14:27;;;;;;;29.38;15.48;;;;;;;2.06;84.81;97083.41;4938773;28;45466;-73
2020/12/30 09:16:56;;;;;;;50.90;26.33;;;;;;;2.29;84.10;97090.16;4938398;28;46242;-74
2020/12/30 09:19:22;;;;;;;20.83;12.80;;;;;;;2.44;83.08;97093.25;4938661;28;45511;-74
2020/12/30 09:21:47;;;;;;;19.48;10.30;;;;;;;2.43;82.96;97093.41;4953631;28;46018;-74
2020/12/30 09:24:16;;;;;;;22.05;12.73;;;;;;;2.31;85.88;97103.16;4938800;28;45401;-74
2020/12/30 09:26:42;;;;;;;18.27;10.77;;;;;;;2.19;87.30;97097.16;4938401;28;45464;-74
2020/12/30 09:29:18;;;;;;;18.75;11.52;;;;;;;2.44;85.57;97103.75;4938509;28;45300;-74
2020/12/30 09:31:55;;;;;;;19.35;11.38;;;;;;;2.46;85.30;97107.06;4938668;28;45438;-74
2020/12/30 09:34:21;;;;;;;26.27;11.52;;;;;;;2.37;85.98;97112.28;4938530;28;45291;-74
2020/12/30 09:36:57;;;;;;;19.58;11.55;;;;;;;2.51;85.32;97111.09;4938513;28;45335;-74
2020/12/30 09:39:24;;;;;;;11.48;7.15;;;;;;;2.51;83.63;97122.44;4938563;28;45401;-74
2020/12/30 09:41:58;;;;;;;14.50;8.45;;;;;;;2.33;85.11;97109.09;4938729;28;45429;-74
2020/12/30 09:44:23;;;;;;;12.30;7.20;;;;;;;2.48;84.23;97123.50;4938134;28;45306;-74
2020/12/30 09:46:51;;;;;;;11.57;6.95;;;;;;;2.57;84.11;97113.16;4938315;28;46182;-74
2020/12/30 09:49:19;;;;;;;10.73;7.32;;;;;;;2.59;84.21;97114.72;4953177;28;45485;-74
2020/12/30 09:51:45;;;;;;;13.30;7.95;;;;;;;2.63;83.47;97118.72;4938760;28;45346;-74
2020/12/30 09:54:10;;;;;;;14.60;7.93;;;;;;;2.67;83.82;97121.09;4938163;28;45438;-74
2020/12/30 09:56:36;;;;;;;13.57;8.48;;;;;;;2.71;83.92;97122.47;4938170;28;45244;-74
2020/12/30 09:59:02;;;;;;;13.63;8.82;;;;;;;2.72;84.26;97122.38;4937960;28;45248;-74
2020/12/30 10:01:30;;;;;;;13.73;8.90;;;;;;;2.76;83.51;97125.53;4938394;28;45298;-74
2020/12/30 10:03:55;;;;;;;17.83;8.40;;;;;;;2.85;82.73;97123.91;4938085;28;45584;-74
2020/12/30 10:06:21;;;;;;;18.88;11.25;;;;;;;2.93;82.93;97131.94;4952916;28;46838;-74
2020/12/30 10:08:46;;;;;;;21.15;13.18;;;;;;;2.96;83.01;97131.69;4938175;28;45509;-74
2020/12/30 10:11:11;;;;;;;19.80;12.00;;;;;;;3.00;83.50;97124.34;4938170;28;45406;-74
2020/12/30 10:13:37;;;;;;;36.53;21.48;;;;;;;2.87;85.25;97128.06;4938045;28;45403;-74
2020/12/30 10:16:02;;;;;;;59.60;33.90;;;;;;;2.86;86.88;97126.38;4937543;28;45326;-74
2020/12/30 10:18:27;;;;;;;55.83;32.25;;;;;;;3.02;84.91;97125.03;4938047;28;45304;-74
2020/12/30 10:20:53;;;;;;;50.25;27.30;;;;;;;2.73;87.18;97124.03;4938074;28;45473;-74
2020/12/30 10:23:18;;;;;;;39.75;23.40;;;;;;;3.02;85.36;97127.66;4937904;28;45529;-74
2020/12/30 10:25:44;;;;;;;39.38;24.05;;;;;;;3.00;85.49;97137.47;4937919;28;45437;-74
2020/12/30 10:28:09;;;;;;;38.65;22.15;;;;;;;3.03;84.46;97138.03;4937665;28;45468;-74
2020/12/30 10:30:35;;;;;;;33.90;20.23;;;;;;;3.00;83.51;97138.31;4941170;28;45499;-74
2020/12/30 10:33:00;;;;;;;21.83;12.55;;;;;;;2.98;82.04;97132.38;4941088;28;45700;-74
2020/12/30 10:35:25;;;;;;;28.35;16.88;;;;;;;2.70;85.28;97139.19;4941049;28;45439;-74
2020/12/30 10:37:51;;;;;;;25.25;15.70;;;;;;;2.73;86.63;97146.81;4941133;28;45437;-74
2020/12/30 10:40:19;;;;;;;26.13;15.93;;;;;;;2.42;88.36;97146.84;4941435;28;45208;-74
2020/12/30 10:42:44;;;;;;;32.38;21.08;;;;;;;2.44;87.79;97150.16;4939593;28;45262;-74
2020/12/30 10:45:10;;;;;;;32.25;18.42;;;;;;;2.56;87.44;97149.09;4940586;28;45388;-74
2020/12/30 10:47:35;;;;;;;24.55;15.65;;;;;;;2.61;87.29;97159.19;4940723;28;45421;-74
2020/12/30 10:50:00;;;;;;;22.02;12.60;;;;;;;2.36;88.86;97157.88;4956097;28;45430;-74
2020/12/30 10:52:26;;;;;;;18.95;11.68;;;;;;;2.30;89.60;97165.31;4940793;28;45754;-74
2020/12/30 10:54:51;;;;;;;19.10;11.38;;;;;;;2.17;90.10;97169.91;4955765;28;47872;-74
2020/12/30 10:57:17;;;;;;;18.50;11.98;;;;;;;2.28;90.21;97169.84;4939191;28;45792;-74
2020/12/30 10:59:42;;;;;;;19.02;12.07;;;;;;;2.44;88.94;97169.34;4940807;28;45359;-74
2020/12/30 11:02:08;;;;;;;19.92;12.52;;;;;;;2.33;89.17;97175.53;4940585;28;45342;-74
2020/12/30 11:04:34;;;;;;;23.45;13.35;;;;;;;2.22;89.55;97175.63;4940824;28;45474;-74
2020/12/30 11:06:59;;;;;;;23.63;14.65;;;;;;;2.06;90.81;97176.06;4940619;28;45422;-74
2020/12/30 11:09:25;;;;;;;22.73;13.93;;;;;;;2.14;90.62;97183.28;4941038;28;45372;-74
2020/12/30 11:11:50;;;;;;;21.48;12.57;;;;;;;2.48;88.76;97180.44;4940469;28;45398;-74
2020/12/30 11:14:16;;;;;;;21.42;13.55;;;;;;;2.67;87.71;97176.22;4940085;28;45291;-73
2020/12/30 11:16:47;;;;;;;22.20;13.15;;;;;;;2.75;86.84;97173.75;4940352;28;45559;-74
2020/12/30 11:19:12;;;;;;;23.00;11.77;;;;;;;2.80;86.67;97174.19;4940621;28;45327;-73
2020/12/30 11:21:38;;;;;;;21.60;12.23;;;;;;;2.93;86.12;97171.34;4955299;28;46509;-74
2020/12/30 11:24:03;;;;;;;21.33;12.35;;;;;;;2.65;86.90;97172.91;4940452;28;46255;-74
2020/12/30 11:26:28;;;;;;;21.77;12.10;;;;;;;2.63;86.31;97178.28;4940259;28;45481;-74
2020/12/30 11:28:54;;;;;;;20.70;12.38;;;;;;;2.67;85.39;97181.47;4940240;28;45318;-74
2020/12/30 11:31:19;;;;;;;22.52;13.05;;;;;;;2.57;87.04;97192.78;4940337;28;45541;-74
2020/12/30 11:33:44;;;;;;;20.10;12.10;;;;;;;2.60;85.74;97186.41;4940395;28;46085;-74
2020/12/30 11:36:10;;;;;;;17.80;10.20;;;;;;;2.89;84.25;97183.91;4940333;28;45445;-74
2020/12/30 11:38:35;;;;;;;13.25;6.90;;;;;;;2.99;80.73;97183.09;4940549;28;45445;-74